sensor_id;sensor_type;location;lat;lon;timestamp;pressure;altitude;pressure_sealevel;temperature;humidity
50933;BME280;36921;49.006;9.292;2023-12-20T00:01:17;98884.25;;;4.00;100.00
50933;BME280;36921;49.006;9.292;2023-12-20T00:03:42;98832.09;;;3.70;100.00
50933;BME280;36921;49.006;9.292;2023-12-20T00:06:08;98900.72;;;4.13;100.00
50933;BME280;36921;49.006;9.292;2023-12-20T00:08:34;98878.91;;;4.00;100.00
50933;BME280;36921;49.006;9.292;2023-12-20T00:10:59;98886.63;;;4.03;100.00
50933;BME280;36921;49.006;9.292;2023-12-20T00:13:24;98896.34;;;4.04;100.00
50933;BME280;36921;49.006;9.292;2023-12-20T00:15:49;98862.44;;;3.87;100.00
50933;BME280;36921;49.006;9.292;2023-12-20T00:18:15;98876.69;;;3.95;100.00
50933;BME280;36921;49.006;9.292;2023-12-20T00:20:40;98870.38;;;3.97;100.00
50933;BME280;36921;49.006;9.292;2023-12-20T00:23:05;98869.22;;;3.99;100.00
50933;BME280;36921;49.006;9.292;2023-12-20T00:25:31;98855.94;;;3.89;100.00
50933;BME280;36921;49.006;9.292;2023-12-20T00:27:56;98857.31;;;3.93;100.00
50933;BME280;36921;49.006;9.292;2023-12-20T00:30:21;98833.28;;;3.76;100.00
50933;BME280;36921;49.006;9.292;2023-12-20T00:32:46;98834.28;;;3.74;100.00
50933;BME280;36921;49.006;9.292;2023-12-20T00:35:16;98863.81;;;3.91;100.00
50933;BME280;36921;49.006;9.292;2023-12-20T00:37:42;98837.16;;;3.81;100.00
50933;BME280;36921;49.006;9.292;2023-12-20T00:40:08;98847.88;;;3.81;100.00
50933;BME280;36921;49.006;9.292;2023-12-20T00:42:34;98866.81;;;3.88;100.00
50933;BME280;36921;49.006;9.292;2023-12-20T00:45:00;98856.38;;;3.77;100.00
50933;BME280;36921;49.006;9.292;2023-12-20T00:47:26;98833.69;;;3.55;100.00
50933;BME280;36921;49.006;9.292;2023-12-20T00:49:51;98834.56;;;3.63;100.00
50933;BME280;36921;49.006;9.292;2023-12-20T00:52:17;98851.66;;;3.70;100.00
50933;BME280;36921;49.006;9.292;2023-12-20T00:54:43;98865.09;;;3.79;100.00
50933;BME280;36921;49.006;9.292;2023-12-20T00:57:09;98879.19;;;3.89;100.00
50933;BME280;36921;49.006;9.292;2023-12-20T00:59:34;98859.41;;;3.82;100.00
50933;BME280;36921;49.006;9.292;2023-12-20T01:01:59;98857.38;;;3.76;100.00
50933;BME280;36921;49.006;9.292;2023-12-20T01:04:25;98854.53;;;3.77;100.00
50933;BME280;36921;49.006;9.292;2023-12-20T01:06:50;98856.69;;;3.73;100.00
50933;BME280;36921;49.006;9.292;2023-12-20T01:09:15;98852.38;;;3.81;100.00
50933;BME280;36921;49.006;9.292;2023-12-20T01:11:40;98873.53;;;3.92;100.00
50933;BME280;36921;49.006;9.292;2023-12-20T01:14:06;98855.22;;;3.79;100.00
50933;BME280;36921;49.006;9.292;2023-12-20T01:16:31;98831.50;;;3.58;100.00
50933;BME280;36921;49.006;9.292;2023-12-20T01:18:56;98855.44;;;3.86;100.00
50933;BME280;36921;49.006;9.292;2023-12-20T01:21:22;98859.41;;;3.82;100.00
50933;BME280;36921;49.006;9.292;2023-12-20T01:23:47;98855.34;;;3.69;100.00
50933;BME280;36921;49.006;9.292;2023-12-20T01:26:12;98868.44;;;3.81;100.00
50933;BME280;36921;49.006;9.292;2023-12-20T01:28:38;98867.25;;;3.75;100.00
50933;BME280;36921;49.006;9.292;2023-12-20T01:31:03;98874.91;;;3.70;100.00
50933;BME280;36921;49.006;9.292;2023-12-20T01:33:29;98872.84;;;3.64;100.00
50933;BME280;36921;49.006;9.292;2023-12-20T01:35:54;98864.09;;;3.54;100.00
50933;BME280;36921;49.006;9.292;2023-12-20T01:38:19;98874.72;;;3.71;100.00
50933;BME280;36921;49.006;9.292;2023-12-20T01:40:45;98872.56;;;3.67;100.00
50933;BME280;36921;49.006;9.292;2023-12-20T01:43:10;98865.81;;;3.63;100.00
50933;BME280;36921;49.006;9.292;2023-12-20T01:45:37;98868.41;;;3.72;100.00
50933;BME280;36921;49.006;9.292;2023-12-20T01:48:04;98886.72;;;3.85;100.00
50933;BME280;36921;49.006;9.292;2023-12-20T01:50:30;98880.81;;;3.82;100.00
50933;BME280;36921;49.006;9.292;2023-12-20T01:52:58;98865.09;;;3.79;100.00
50933;BME280;36921;49.006;9.292;2023-12-20T01:55:27;98861.34;;;3.71;100.00
50933;BME280;36921;49.006;9.292;2023-12-20T01:57:53;98872.44;;;3.77;100.00
50933;BME280;36921;49.006;9.292;2023-12-20T02:00:19;98856.91;;;3.80;100.00
50933;BME280;36921;49.006;9.292;2023-12-20T02:02:48;98861.28;;;3.89;100.00
50933;BME280;36921;49.006;9.292;2023-12-20T02:05:16;98867.03;;;4.03;100.00
50933;BME280;36921;49.006;9.292;2023-12-20T02:07:42;98864.41;;;4.11;100.00
50933;BME280;36921;49.006;9.292;2023-12-20T02:10:07;98856.72;;;4.16;100.00
50933;BME280;36921;49.006;9.292;2023-12-20T02:12:33;98838.16;;;4.14;100.00
50933;BME280;36921;49.006;9.292;2023-12-20T02:14:58;98849.97;;;4.38;100.00
50933;BME280;36921;49.006;9.292;2023-12-20T02:17:24;98862.38;;;4.55;100.00
50933;BME280;36921;49.006;9.292;2023-12-20T02:19:50;98848.50;;;4.60;100.00
50933;BME280;36921;49.006;9.292;2023-12-20T02:22:15;98852.69;;;4.63;100.00
50933;BME280;36921;49.006;9.292;2023-12-20T02:24:41;98857.25;;;4.78;100.00
50933;BME280;36921;49.006;9.292;2023-12-20T02:27:07;98860.97;;;4.94;100.00
50933;BME280;36921;49.006;9.292;2023-12-20T02:29:33;98863.16;;;4.98;100.00
50933;BME280;36921;49.006;9.292;2023-12-20T02:31:59;98849.75;;;4.90;100.00
50933;BME280;36921;49.006;9.292;2023-12-20T02:34:24;98867.16;;;5.02;100.00
50933;BME280;36921;49.006;9.292;2023-12-20T02:36:50;98851.06;;;4.94;100.00
50933;BME280;36921;49.006;9.292;2023-12-20T02:39:15;98834.00;;;4.95;100.00
50933;BME280;36921;49.006;9.292;2023-12-20T02:41:40;98838.34;;;4.96;100.00
50933;BME280;36921;49.006;9.292;2023-12-20T02:44:06;98847.06;;;4.98;100.00
50933;BME280;36921;49.006;9.292;2023-12-20T02:46:31;98833.81;;;4.89;100.00
50933;BME280;36921;49.006;9.292;2023-12-20T02:48:56;98837.66;;;4.94;100.00
50933;BME280;36921;49.006;9.292;2023-12-20T02:51:21;98847.41;;;4.95;100.00
50933;BME280;36921;49.006;9.292;2023-12-20T02:53:47;98850.91;;;5.04;100.00
50933;BME280;36921;49.006;9.292;2023-12-20T02:56:12;98828.25;;;4.82;100.00
50933;BME280;36921;49.006;9.292;2023-12-20T02:58:38;98844.03;;;4.93;100.00
50933;BME280;36921;49.006;9.292;2023-12-20T03:01:04;98834.31;;;4.84;100.00
50933;BME280;36921;49.006;9.292;2023-12-20T03:03:29;98861.28;;;4.91;100.00
50933;BME280;36921;49.006;9.292;2023-12-20T03:05:55;98834.97;;;4.78;100.00
50933;BME280;36921;49.006;9.292;2023-12-20T03:08:20;98842.69;;;4.81;100.00
50933;BME280;36921;49.006;9.292;2023-12-20T03:10:45;98848.72;;;4.83;100.00
50933;BME280;36921;49.006;9.292;2023-12-20T03:13:11;98851.41;;;4.83;100.00
50933;BME280;36921;49.006;9.292;2023-12-20T03:15:36;98858.41;;;4.76;100.00
50933;BME280;36921;49.006;9.292;2023-12-20T03:18:02;98838.63;;;4.60;100.00
50933;BME280;36921;49.006;9.292;2023-12-20T03:20:28;98853.03;;;4.68;100.00
50933;BME280;36921;49.006;9.292;2023-12-20T03:22:53;98873.00;;;4.81;100.00
50933;BME280;36921;49.006;9.292;2023-12-20T03:25:18;98830.91;;;4.49;100.00
50933;BME280;36921;49.006;9.292;2023-12-20T03:27:43;98848.50;;;4.60;100.00
50933;BME280;36921;49.006;9.292;2023-12-20T03:30:09;98852.69;;;4.63;100.00
50933;BME280;36921;49.006;9.292;2023-12-20T03:32:34;98855.53;;;4.61;100.00
50933;BME280;36921;49.006;9.292;2023-12-20T03:35:00;98872.97;;;4.73;100.00
50933;BME280;36921;49.006;9.292;2023-12-20T03:37:25;98849.53;;;4.67;100.00
50933;BME280;36921;49.006;9.292;2023-12-20T03:39:50;98858.88;;;4.63;100.00
50933;BME280;36921;49.006;9.292;2023-12-20T03:42:16;98852.00;;;4.60;100.00
50933;BME280;36921;49.006;9.292;2023-12-20T03:44:41;98856.22;;;4.63;100.00
50933;BME280;36921;49.006;9.292;2023-12-20T03:47:06;98846.50;;;4.54;100.00
50933;BME280;36921;49.006;9.292;2023-12-20T03:49:32;98835.91;;;4.52;100.00
50933;BME280;36921;49.006;9.292;2023-12-20T03:51:57;98847.47;;;4.53;100.00
50933;BME280;36921;49.006;9.292;2023-12-20T03:54:22;98877.16;;;4.68;100.00
50933;BME280;36921;49.006;9.292;2023-12-20T03:56:48;98841.28;;;4.52;100.00
50933;BME280;36921;49.006;9.292;2023-12-20T03:59:13;98856.88;;;4.65;100.00
50933;BME280;36921;49.006;9.292;2023-12-20T04:01:43;98852.69;;;4.54;100.00
50933;BME280;36921;49.006;9.292;2023-12-20T04:04:08;98894.97;;;4.77;100.00
50933;BME280;36921;49.006;9.292;2023-12-20T04:06:33;98875.81;;;4.64;100.00
50933;BME280;36921;49.006;9.292;2023-12-20T04:08:59;98844.16;;;4.51;100.00
50933;BME280;36921;49.006;9.292;2023-12-20T04:11:25;98818.16;;;4.35;100.00
50933;BME280;36921;49.006;9.292;2023-12-20T04:13:50;98873.13;;;4.64;100.00
50933;BME280;36921;49.006;9.292;2023-12-20T04:16:15;98847.13;;;4.48;100.00
50933;BME280;36921;49.006;9.292;2023-12-20T04:18:41;98863.03;;;4.49;100.00
50933;BME280;36921;49.006;9.292;2023-12-20T04:21:06;98839.41;;;4.36;100.00
50933;BME280;36921;49.006;9.292;2023-12-20T04:23:32;98864.09;;;4.56;100.00
50933;BME280;36921;49.006;9.292;2023-12-20T04:25:57;98849.97;;;4.38;100.00
50933;BME280;36921;49.006;9.292;2023-12-20T04:28:22;98893.56;;;4.56;100.00
50933;BME280;36921;49.006;9.292;2023-12-20T04:30:48;98871.78;;;4.51;100.00
50933;BME280;36921;49.006;9.292;2023-12-20T04:33:13;98901.91;;;4.53;100.00
50933;BME280;36921;49.006;9.292;2023-12-20T04:35:38;98910.63;;;4.55;100.00
50933;BME280;36921;49.006;9.292;2023-12-20T04:38:06;98918.16;;;4.60;100.00
50933;BME280;36921;49.006;9.292;2023-12-20T04:40:31;98904.91;;;4.50;100.00
50933;BME280;36921;49.006;9.292;2023-12-20T04:42:56;98914.81;;;4.66;100.00
50933;BME280;36921;49.006;9.292;2023-12-20T04:45:22;98903.94;;;4.59;100.00
50933;BME280;36921;49.006;9.292;2023-12-20T04:47:48;98911.16;;;4.67;100.00
50933;BME280;36921;49.006;9.292;2023-12-20T04:50:14;98908.97;;;4.63;100.00
50933;BME280;36921;49.006;9.292;2023-12-20T04:52:39;98902.94;;;4.60;100.00
50933;BME280;36921;49.006;9.292;2023-12-20T04:55:05;98924.22;;;4.70;100.00
50933;BME280;36921;49.006;9.292;2023-12-20T04:57:30;98916.19;;;4.70;100.00
50933;BME280;36921;49.006;9.292;2023-12-20T04:59:55;98904.78;;;4.60;100.00
50933;BME280;36921;49.006;9.292;2023-12-20T05:02:21;98910.16;;;4.68;100.00
50933;BME280;36921;49.006;9.292;2023-12-20T05:04:46;98888.88;;;4.58;100.00
50933;BME280;36921;49.006;9.292;2023-12-20T05:07:11;98909.31;;;4.68;100.00
50933;BME280;36921;49.006;9.292;2023-12-20T05:09:37;98910.13;;;4.60;100.00
50933;BME280;36921;49.006;9.292;2023-12-20T05:12:02;98916.34;;;4.69;100.00
50933;BME280;36921;49.006;9.292;2023-12-20T05:14:28;98935.47;;;4.74;100.00
50933;BME280;36921;49.006;9.292;2023-12-20T05:16:53;98932.13;;;4.72;100.00
50933;BME280;36921;49.006;9.292;2023-12-20T05:19:18;98933.94;;;4.71;100.00
50933;BME280;36921;49.006;9.292;2023-12-20T05:21:44;98916.00;;;4.64;100.00
50933;BME280;36921;49.006;9.292;2023-12-20T05:24:09;98912.00;;;4.68;100.00
50933;BME280;36921;49.006;9.292;2023-12-20T05:26:34;98905.31;;;4.72;100.00
50933;BME280;36921;49.006;9.292;2023-12-20T05:29:00;98920.91;;;4.76;100.00
50933;BME280;36921;49.006;9.292;2023-12-20T05:31:25;98941.38;;;4.94;100.00
50933;BME280;36921;49.006;9.292;2023-12-20T05:33:50;98935.00;;;4.95;100.00
50933;BME280;36921;49.006;9.292;2023-12-20T05:36:15;98934.81;;;4.80;100.00
50933;BME280;36921;49.006;9.292;2023-12-20T05:38:41;98955.28;;;4.89;100.00
50933;BME280;36921;49.006;9.292;2023-12-20T05:41:06;98932.78;;;4.82;100.00
50933;BME280;36921;49.006;9.292;2023-12-20T05:43:31;98954.13;;;4.92;100.00
50933;BME280;36921;49.006;9.292;2023-12-20T05:45:57;98965.03;;;4.90;100.00
50933;BME280;36921;49.006;9.292;2023-12-20T05:48:23;98960.97;;;4.86;100.00
50933;BME280;36921;49.006;9.292;2023-12-20T05:50:48;98974.72;;;4.91;100.00
50933;BME280;36921;49.006;9.292;2023-12-20T05:53:14;98980.59;;;4.95;100.00
50933;BME280;36921;49.006;9.292;2023-12-20T05:55:39;98972.53;;;4.87;100.00
50933;BME280;36921;49.006;9.292;2023-12-20T05:58:05;98977.06;;;4.86;100.00
50933;BME280;36921;49.006;9.292;2023-12-20T06:00:30;98975.22;;;4.87;100.00
50933;BME280;36921;49.006;9.292;2023-12-20T06:02:55;98984.63;;;4.91;100.00
50933;BME280;36921;49.006;9.292;2023-12-20T06:05:21;98982.41;;;4.86;100.00
50933;BME280;36921;49.006;9.292;2023-12-20T06:07:47;98983.06;;;4.80;100.00
50933;BME280;36921;49.006;9.292;2023-12-20T06:10:13;99000.16;;;4.87;100.00
50933;BME280;36921;49.006;9.292;2023-12-20T06:12:39;98991.47;;;4.85;100.00
50933;BME280;36921;49.006;9.292;2023-12-20T06:15:04;98982.09;;;4.89;100.00
50933;BME280;36921;49.006;9.292;2023-12-20T06:17:31;98987.41;;;4.81;100.00
50933;BME280;36921;49.006;9.292;2023-12-20T06:19:56;98997.84;;;4.92;100.00
50933;BME280;36921;49.006;9.292;2023-12-20T06:22:21;98995.34;;;4.91;100.00
50933;BME280;36921;49.006;9.292;2023-12-20T06:24:47;99005.34;;;4.80;100.00
50933;BME280;36921;49.006;9.292;2023-12-20T06:27:12;99001.00;;;4.79;100.00
50933;BME280;36921;49.006;9.292;2023-12-20T06:29:38;99010.25;;;4.85;100.00
50933;BME280;36921;49.006;9.292;2023-12-20T06:32:03;99007.03;;;4.90;100.00
50933;BME280;36921;49.006;9.292;2023-12-20T06:34:29;99005.53;;;4.87;100.00
50933;BME280;36921;49.006;9.292;2023-12-20T06:36:54;98996.47;;;4.80;100.00
50933;BME280;36921;49.006;9.292;2023-12-20T06:39:19;99005.53;;;4.87;100.00
50933;BME280;36921;49.006;9.292;2023-12-20T06:41:44;98999.66;;;4.83;100.00
50933;BME280;36921;49.006;9.292;2023-12-20T06:44:10;99012.47;;;4.98;100.00
50933;BME280;36921;49.006;9.292;2023-12-20T06:46:35;99013.97;;;5.00;100.00
50933;BME280;36921;49.006;9.292;2023-12-20T06:49:00;99008.25;;;4.95;100.00
50933;BME280;36921;49.006;9.292;2023-12-20T06:51:26;99017.81;;;4.98;100.00
50933;BME280;36921;49.006;9.292;2023-12-20T06:53:52;99018.16;;;5.03;100.00
50933;BME280;36921;49.006;9.292;2023-12-20T06:56:17;99009.59;;;4.91;100.00
50933;BME280;36921;49.006;9.292;2023-12-20T06:58:42;99026.72;;;5.07;100.00
50933;BME280;36921;49.006;9.292;2023-12-20T07:01:14;99017.97;;;4.96;100.00
50933;BME280;36921;49.006;9.292;2023-12-20T07:03:40;99014.47;;;4.96;100.00
50933;BME280;36921;49.006;9.292;2023-12-20T07:06:06;99022.31;;;4.89;100.00
50933;BME280;36921;49.006;9.292;2023-12-20T07:08:31;98995.47;;;4.81;100.00
50933;BME280;36921;49.006;9.292;2023-12-20T07:10:56;99034.75;;;4.98;100.00
50933;BME280;36921;49.006;9.292;2023-12-20T07:13:22;99044.47;;;5.08;100.00
50933;BME280;36921;49.006;9.292;2023-12-20T07:15:48;99031.25;;;5.06;100.00
50933;BME280;36921;49.006;9.292;2023-12-20T07:18:13;99053.25;;;5.18;100.00
50933;BME280;36921;49.006;9.292;2023-12-20T07:20:39;99067.13;;;5.13;100.00
50933;BME280;36921;49.006;9.292;2023-12-20T07:23:04;99064.97;;;5.17;100.00
50933;BME280;36921;49.006;9.292;2023-12-20T07:25:29;99041.41;;;4.94;100.00
50933;BME280;36921;49.006;9.292;2023-12-20T07:27:57;99058.25;;;5.13;100.00
50933;BME280;36921;49.006;9.292;2023-12-20T07:30:23;99051.91;;;5.14;100.00
50933;BME280;36921;49.006;9.292;2023-12-20T07:32:48;99075.22;;;5.21;100.00
50933;BME280;36921;49.006;9.292;2023-12-20T07:35:15;99083.44;;;5.20;100.00
50933;BME280;36921;49.006;9.292;2023-12-20T07:37:40;99081.78;;;5.27;100.00
50933;BME280;36921;49.006;9.292;2023-12-20T07:40:06;99076.22;;;5.20;100.00
50933;BME280;36921;49.006;9.292;2023-12-20T07:42:32;99078.06;;;5.20;100.00
50933;BME280;36921;49.006;9.292;2023-12-20T07:44:58;99074.38;;;5.21;100.00
50933;BME280;36921;49.006;9.292;2023-12-20T07:47:23;99062.78;;;5.12;100.00
50933;BME280;36921;49.006;9.292;2023-12-20T07:49:50;99085.44;;;5.26;100.00
50933;BME280;36921;49.006;9.292;2023-12-20T07:52:17;99059.25;;;5.12;100.00
50933;BME280;36921;49.006;9.292;2023-12-20T07:54:42;99085.47;;;5.34;100.00
50933;BME280;36921;49.006;9.292;2023-12-20T07:57:07;99090.66;;;5.27;100.00
50933;BME280;36921;49.006;9.292;2023-12-20T07:59:33;99094.88;;;5.38;100.00
50933;BME280;36921;49.006;9.292;2023-12-20T08:01:58;99089.31;;;5.32;100.00
50933;BME280;36921;49.006;9.292;2023-12-20T08:04:23;99084.97;;;5.31;100.00
50933;BME280;36921;49.006;9.292;2023-12-20T08:06:50;99083.31;;;5.38;100.00
50933;BME280;36921;49.006;9.292;2023-12-20T08:09:15;99079.16;;;5.43;100.00
50933;BME280;36921;49.006;9.292;2023-12-20T08:11:45;99072.75;;;5.44;100.00
50933;BME280;36921;49.006;9.292;2023-12-20T08:14:10;99069.72;;;5.39;100.00
50933;BME280;36921;49.006;9.292;2023-12-20T08:16:36;99078.34;;;5.59;100.00
50933;BME280;36921;49.006;9.292;2023-12-20T08:19:01;99082.22;;;5.73;100.00
50933;BME280;36921;49.006;9.292;2023-12-20T08:21:26;99080.88;;;5.69;100.00
50933;BME280;36921;49.006;9.292;2023-12-20T08:23:52;99065.28;;;5.81;100.00
50933;BME280;36921;49.006;9.292;2023-12-20T08:26:21;99089.28;;;5.90;100.00
50933;BME280;36921;49.006;9.292;2023-12-20T08:28:50;99083.75;;;5.84;100.00
50933;BME280;36921;49.006;9.292;2023-12-20T08:31:16;99093.03;;;5.98;100.00
50933;BME280;36921;49.006;9.292;2023-12-20T08:33:44;99090.00;;;6.01;100.00
50933;BME280;36921;49.006;9.292;2023-12-20T08:36:09;99079.03;;;5.86;100.00
50933;BME280;36921;49.006;9.292;2023-12-20T08:38:34;99091.28;;;5.72;100.00
50933;BME280;36921;49.006;9.292;2023-12-20T08:41:00;99063.22;;;5.50;100.00
50933;BME280;36921;49.006;9.292;2023-12-20T08:43:26;99098.31;;;5.65;100.00
50933;BME280;36921;49.006;9.292;2023-12-20T08:45:51;99109.06;;;5.73;100.00
50933;BME280;36921;49.006;9.292;2023-12-20T08:48:17;99086.72;;;5.48;100.00
50933;BME280;36921;49.006;9.292;2023-12-20T08:50:42;99108.06;;;5.66;100.00
50933;BME280;36921;49.006;9.292;2023-12-20T08:53:08;99085.91;;;5.56;100.00
50933;BME280;36921;49.006;9.292;2023-12-20T08:55:33;99073.81;;;5.68;100.00
50933;BME280;36921;49.006;9.292;2023-12-20T08:57:59;99094.31;;;5.85;100.00
50933;BME280;36921;49.006;9.292;2023-12-20T09:00:24;99075.22;;;6.05;100.00
50933;BME280;36921;49.006;9.292;2023-12-20T09:02:52;99070.13;;;6.67;100.00
50933;BME280;36921;49.006;9.292;2023-12-20T09:05:18;99056.28;;;6.95;100.00
50933;BME280;36921;49.006;9.292;2023-12-20T09:07:43;99063.09;;;7.45;100.00
50933;BME280;36921;49.006;9.292;2023-12-20T09:10:08;99060.31;;;7.84;100.00
50933;BME280;36921;49.006;9.292;2023-12-20T09:12:34;99035.25;;;7.84;100.00
50933;BME280;36921;49.006;9.292;2023-12-20T09:14:59;99047.31;;;9.23;100.00
50933;BME280;36921;49.006;9.292;2023-12-20T09:17:27;99029.66;;;10.78;100.00
50933;BME280;36921;49.006;9.292;2023-12-20T09:19:52;99037.78;;;10.49;100.00
50933;BME280;36921;49.006;9.292;2023-12-20T09:22:19;99051.16;;;8.84;100.00
50933;BME280;36921;49.006;9.292;2023-12-20T09:24:44;99058.09;;;8.11;100.00
50933;BME280;36921;49.006;9.292;2023-12-20T09:27:10;99052.53;;;7.89;100.00
50933;BME280;36921;49.006;9.292;2023-12-20T09:29:35;99050.38;;;10.14;100.00
50933;BME280;36921;49.006;9.292;2023-12-20T09:32:01;99037.13;;;10.47;100.00
50933;BME280;36921;49.006;9.292;2023-12-20T09:34:26;99048.88;;;13.44;100.00
50933;BME280;36921;49.006;9.292;2023-12-20T09:36:52;99048.22;;;12.90;100.00
50933;BME280;36921;49.006;9.292;2023-12-20T09:39:19;99057.25;;;12.64;100.00
50933;BME280;36921;49.006;9.292;2023-12-20T09:41:45;99060.88;;;10.80;100.00
50933;BME280;36921;49.006;9.292;2023-12-20T09:44:16;99063.06;;;9.56;100.00
50933;BME280;36921;49.006;9.292;2023-12-20T09:46:45;99070.47;;;9.32;100.00
50933;BME280;36921;49.006;9.292;2023-12-20T09:49:11;99069.84;;;9.30;100.00
50933;BME280;36921;49.006;9.292;2023-12-20T09:51:37;99049.19;;;10.45;100.00
50933;BME280;36921;49.006;9.292;2023-12-20T09:54:04;99059.59;;;10.76;100.00
50933;BME280;36921;49.006;9.292;2023-12-20T09:56:30;99053.03;;;10.92;100.00
50933;BME280;36921;49.006;9.292;2023-12-20T09:58:56;99071.91;;;13.41;100.00
50933;BME280;36921;49.006;9.292;2023-12-20T10:01:21;99058.44;;;14.80;100.00
50933;BME280;36921;49.006;9.292;2023-12-20T10:03:47;99045.28;;;16.11;87.81
50933;BME280;36921;49.006;9.292;2023-12-20T10:06:13;99063.19;;;15.28;88.60
50933;BME280;36921;49.006;9.292;2023-12-20T10:08:38;99068.38;;;14.42;94.75
50933;BME280;36921;49.006;9.292;2023-12-20T10:11:05;99033.59;;;14.44;93.35
50933;BME280;36921;49.006;9.292;2023-12-20T10:13:30;99058.97;;;13.81;99.00
50933;BME280;36921;49.006;9.292;2023-12-20T10:15:56;99038.28;;;14.06;94.06
50933;BME280;36921;49.006;9.292;2023-12-20T10:18:22;99053.78;;;14.05;100.00
50933;BME280;36921;49.006;9.292;2023-12-20T10:20:48;99046.81;;;13.84;94.64
50933;BME280;36921;49.006;9.292;2023-12-20T10:23:15;99063.09;;;12.41;100.00
50933;BME280;36921;49.006;9.292;2023-12-20T10:25:42;99056.19;;;9.53;100.00
50933;BME280;36921;49.006;9.292;2023-12-20T10:28:15;99059.91;;;8.71;100.00
50933;BME280;36921;49.006;9.292;2023-12-20T10:30:44;99041.66;;;10.19;100.00
50933;BME280;36921;49.006;9.292;2023-12-20T10:33:10;99034.69;;;12.63;100.00
50933;BME280;36921;49.006;9.292;2023-12-20T10:35:38;99040.75;;;14.89;94.69
50933;BME280;36921;49.006;9.292;2023-12-20T10:38:05;99037.34;;;15.49;79.62
50933;BME280;36921;49.006;9.292;2023-12-20T10:40:34;99029.28;;;16.14;79.85
50933;BME280;36921;49.006;9.292;2023-12-20T10:43:00;99036.25;;;15.98;75.12
50933;BME280;36921;49.006;9.292;2023-12-20T10:45:27;99027.22;;;17.51;70.02
50933;BME280;36921;49.006;9.292;2023-12-20T10:47:52;99021.16;;;16.97;68.23
50933;BME280;36921;49.006;9.292;2023-12-20T10:50:19;99047.41;;;15.48;70.67
50933;BME280;36921;49.006;9.292;2023-12-20T10:52:45;99038.63;;;16.84;69.46
50933;BME280;36921;49.006;9.292;2023-12-20T10:55:32;99045.53;;;15.12;72.24
50933;BME280;36921;49.006;9.292;2023-12-20T10:58:00;99030.03;;;12.90;86.06
50933;BME280;36921;49.006;9.292;2023-12-20T11:00:26;99040.56;;;10.97;100.00
50933;BME280;36921;49.006;9.292;2023-12-20T11:02:55;99033.41;;;10.27;100.00
50933;BME280;36921;49.006;9.292;2023-12-20T11:05:44;99047.38;;;9.66;100.00
50933;BME280;36921;49.006;9.292;2023-12-20T11:08:44;99025.16;;;9.28;100.00
50933;BME280;36921;49.006;9.292;2023-12-20T11:13:53;99041.69;;;9.39;100.00
50933;BME280;36921;49.006;9.292;2023-12-20T11:16:19;99034.22;;;8.90;100.00
50933;BME280;36921;49.006;9.292;2023-12-20T11:18:46;99040.66;;;8.89;100.00
50933;BME280;36921;49.006;9.292;2023-12-20T11:21:12;99036.28;;;8.35;100.00
50933;BME280;36921;49.006;9.292;2023-12-20T11:23:42;99033.16;;;7.94;100.00
50933;BME280;36921;49.006;9.292;2023-12-20T11:26:08;99034.03;;;7.63;100.00
50933;BME280;36921;49.006;9.292;2023-12-20T11:28:33;99037.44;;;7.57;100.00
50933;BME280;36921;49.006;9.292;2023-12-20T11:31:00;99045.91;;;7.46;100.00
50933;BME280;36921;49.006;9.292;2023-12-20T11:33:30;99053.09;;;7.22;100.00
50933;BME280;36921;49.006;9.292;2023-12-20T11:35:56;99046.97;;;7.06;100.00
50933;BME280;36921;49.006;9.292;2023-12-20T11:38:21;99053.06;;;6.91;100.00
50933;BME280;36921;49.006;9.292;2023-12-20T11:40:50;99058.69;;;6.65;100.00
50933;BME280;36921;49.006;9.292;2023-12-20T11:43:38;99054.34;;;6.64;100.00
50933;BME280;36921;49.006;9.292;2023-12-20T11:46:08;99047.97;;;6.57;100.00
50933;BME280;36921;49.006;9.292;2023-12-20T11:48:36;99042.94;;;6.54;100.00
50933;BME280;36921;49.006;9.292;2023-12-20T11:51:02;99042.19;;;6.85;100.00
50933;BME280;36921;49.006;9.292;2023-12-20T11:53:34;99026.31;;;6.98;100.00
50933;BME280;36921;49.006;9.292;2023-12-20T11:56:00;99020.16;;;6.89;100.00
50933;BME280;36921;49.006;9.292;2023-12-20T11:58:25;99039.13;;;6.88;100.00
50933;BME280;36921;49.006;9.292;2023-12-20T12:00:51;99024.03;;;6.87;100.00
50933;BME280;36921;49.006;9.292;2023-12-20T12:03:16;99028.38;;;6.88;100.00
50933;BME280;36921;49.006;9.292;2023-12-20T12:05:42;99026.38;;;6.90;100.00
50933;BME280;36921;49.006;9.292;2023-12-20T12:08:07;99029.53;;;6.93;100.00
50933;BME280;36921;49.006;9.292;2023-12-20T12:10:33;99023.16;;;6.94;100.00
50933;BME280;36921;49.006;9.292;2023-12-20T12:12:59;99019.81;;;6.92;100.00
50933;BME280;36921;49.006;9.292;2023-12-20T12:15:26;99016.22;;;7.00;100.00
50933;BME280;36921;49.006;9.292;2023-12-20T12:17:55;99018.38;;;7.36;100.00
50933;BME280;36921;49.006;9.292;2023-12-20T12:20:24;99013.16;;;7.11;100.00
50933;BME280;36921;49.006;9.292;2023-12-20T12:23:04;99014.69;;;7.37;100.00
50933;BME280;36921;49.006;9.292;2023-12-20T12:25:31;99008.91;;;7.48;100.00
50933;BME280;36921;49.006;9.292;2023-12-20T12:27:58;99016.41;;;7.30;100.00
50933;BME280;36921;49.006;9.292;2023-12-20T12:30:23;99014.75;;;7.75;100.00
50933;BME280;36921;49.006;9.292;2023-12-20T12:32:50;99009.75;;;7.72;100.00
50933;BME280;36921;49.006;9.292;2023-12-20T12:35:16;99012.13;;;7.43;100.00
50933;BME280;36921;49.006;9.292;2023-12-20T12:37:42;99011.13;;;7.13;100.00
50933;BME280;36921;49.006;9.292;2023-12-20T12:40:10;99007.63;;;7.05;100.00
50933;BME280;36921;49.006;9.292;2023-12-20T12:42:36;99017.81;;;7.17;100.00
50933;BME280;36921;49.006;9.292;2023-12-20T12:45:02;99017.69;;;7.11;100.00
50933;BME280;36921;49.006;9.292;2023-12-20T12:47:28;99018.78;;;7.24;100.00
50933;BME280;36921;49.006;9.292;2023-12-20T12:49:53;99027.13;;;7.38;100.00
50933;BME280;36921;49.006;9.292;2023-12-20T12:52:19;99017.44;;;7.29;100.00
50933;BME280;36921;49.006;9.292;2023-12-20T12:54:45;99011.38;;;7.27;100.00
50933;BME280;36921;49.006;9.292;2023-12-20T12:57:11;99007.19;;;7.24;100.00